createdAt,value
2018-03-15T00:01:15.337Z,7.21
2018-03-15T00:02:53.043Z,7.19
2018-03-15T00:04:31.007Z,7.19
2018-03-15T00:06:08.587Z,7.18
2018-03-15T00:07:45.871Z,7.15
2018-03-15T00:09:23.963Z,7.18
2018-03-15T00:11:01.375Z,7.15
2018-03-15T00:12:38.650Z,7.15
2018-03-15T00:14:16.031Z,7.16
2018-03-15T00:15:53.776Z,7.13
2018-03-15T00:17:31.032Z,7.12
2018-03-15T00:19:09.372Z,7.12
2018-03-15T00:20:46.969Z,7.11
2018-03-15T00:22:24.815Z,7.09
2018-03-15T00:24:02.102Z,7.05
2018-03-15T00:25:40.554Z,7.01
2018-03-15T00:27:18.520Z,7.03
2018-03-15T00:28:56.099Z,7.05
2018-03-15T00:30:33.727Z,7.03
2018-03-15T00:32:11.423Z,7.09
2018-03-15T00:33:50.164Z,7.04
2018-03-15T00:35:28.242Z,6.99
2018-03-15T00:37:05.941Z,7.02
2018-03-15T00:38:43.592Z,6.98
2018-03-15T00:40:21.896Z,6.93
2018-03-15T00:42:01.593Z,6.93
2018-03-15T00:43:39.411Z,6.90
2018-03-15T00:45:19.068Z,6.89
2018-03-15T00:46:57.080Z,6.87
2018-03-15T00:48:36.028Z,6.85
2018-03-15T00:50:14.033Z,6.81
2018-03-15T00:51:51.900Z,6.83
2018-03-15T00:53:29.474Z,6.81
2018-03-15T00:55:08.306Z,6.81
2018-03-15T00:56:45.942Z,6.76
2018-03-15T00:58:24.376Z,6.74
2018-03-15T01:00:03.436Z,6.75
2018-03-15T01:01:45.873Z,6.75
2018-03-15T01:03:24.352Z,6.71
2018-03-15T01:05:02.066Z,6.71
2018-03-15T01:06:39.745Z,6.72
2018-03-15T01:08:18.511Z,6.76
2018-03-15T01:09:56.136Z,6.78
2018-03-15T01:11:33.655Z,6.74
2018-03-15T01:13:11.024Z,6.71
2018-03-15T01:14:49.842Z,6.68
2018-03-15T01:16:27.600Z,6.68
2018-03-15T01:18:05.052Z,6.67
2018-03-15T01:19:42.803Z,6.67
2018-03-15T01:21:21.326Z,6.65
2018-03-15T01:22:59.828Z,6.61
2018-03-15T01:24:37.192Z,6.61
2018-03-15T01:26:16.100Z,6.59
2018-03-15T01:27:56.416Z,6.62
2018-03-15T01:29:34.247Z,6.59
2018-03-15T01:31:12.245Z,6.57
2018-03-15T01:32:50.087Z,6.54
2018-03-15T01:34:27.858Z,6.55
2018-03-15T01:36:06.967Z,6.54
2018-03-15T01:37:44.725Z,6.48
2018-03-15T01:39:22.507Z,6.47
2018-03-15T01:41:01.709Z,6.49
2018-03-15T01:42:39.787Z,6.46
2018-03-15T01:44:21.479Z,6.47
2018-03-15T01:46:00.181Z,6.46
2018-03-15T01:47:38.303Z,6.47
2018-03-15T01:49:15.624Z,6.48
2018-03-15T01:50:53.686Z,6.45
2018-03-15T01:52:33.238Z,6.46
2018-03-15T01:54:12.041Z,6.54
2018-03-15T01:55:49.741Z,6.51
2018-03-15T01:57:28.295Z,6.47
2018-03-15T01:59:05.745Z,6.44
2018-03-15T02:00:43.399Z,6.43
2018-03-15T02:02:20.807Z,6.49
2018-03-15T02:03:59.389Z,6.49
2018-03-15T02:05:36.604Z,6.47
2018-03-15T02:07:14.043Z,6.44
2018-03-15T02:08:52.632Z,6.41
2018-03-15T02:10:30.449Z,6.35
2018-03-15T02:12:08.614Z,6.33
2018-03-15T02:13:45.794Z,6.31
2018-03-15T02:15:24.696Z,6.31
2018-03-15T02:17:02.455Z,6.35
2018-03-15T02:18:40.161Z,6.33
2018-03-15T02:20:18.320Z,6.35
2018-03-15T02:21:56.607Z,6.33
2018-03-15T02:23:37.762Z,6.31
2018-03-15T02:25:15.421Z,6.31
2018-03-15T02:26:52.256Z,6.28
2018-03-15T02:28:29.530Z,6.28
2018-03-15T02:30:07.643Z,6.27
2018-03-15T02:31:45.987Z,6.25
2018-03-15T02:33:30.895Z,6.28
2018-03-15T02:35:08.631Z,6.28
2018-03-15T02:36:46.301Z,6.31
2018-03-15T02:38:24.805Z,6.25
2018-03-15T02:40:01.603Z,6.22
2018-03-15T02:43:17.420Z,6.23
2018-03-15T02:44:55.521Z,6.21
2018-03-15T02:46:33.414Z,6.19
2018-03-15T02:48:11.478Z,6.22
2018-03-15T02:49:48.753Z,6.24
2018-03-15T02:51:26.453Z,6.23
2018-03-15T02:53:08.753Z,6.19
2018-03-15T02:54:45.615Z,6.19
2018-03-15T02:56:22.863Z,6.17
2018-03-15T02:58:01.121Z,6.14
2018-03-15T02:59:38.096Z,6.14
2018-03-15T03:01:15.039Z,6.13
2018-03-15T03:02:52.461Z,6.13
2018-03-15T03:04:29.373Z,6.12
2018-03-15T03:06:12.666Z,6.15
2018-03-15T03:07:51.015Z,6.15
2018-03-15T03:09:28.182Z,6.11
2018-03-15T03:11:06.367Z,6.14
2018-03-15T03:12:43.121Z,6.14
2018-03-15T03:14:20.041Z,6.12
2018-03-15T03:15:57.239Z,6.07
2018-03-15T03:17:35.498Z,6.10
2018-03-15T03:19:12.418Z,6.12
2018-03-15T03:20:49.154Z,6.10
2018-03-15T03:22:25.937Z,6.09
2018-03-15T03:24:02.931Z,6.13
2018-03-15T03:25:40.378Z,6.14
2018-03-15T03:27:17.840Z,6.16
2018-03-15T03:28:55.310Z,6.18
2018-03-15T03:30:32.555Z,6.18
2018-03-15T03:32:09.333Z,6.15
2018-03-15T03:33:45.846Z,6.15
2018-03-15T03:35:23.133Z,6.13
2018-03-15T03:37:00.134Z,6.11
2018-03-15T03:38:36.683Z,6.12
2018-03-15T03:40:14.235Z,6.10
2018-03-15T03:41:50.818Z,6.10
2018-03-15T03:43:28.557Z,6.11
2018-03-15T03:45:05.210Z,6.10
2018-03-15T03:46:42.169Z,6.12
2018-03-15T03:48:18.763Z,6.13
2018-03-15T03:49:56.444Z,6.10
2018-03-15T03:51:33.006Z,6.09
2018-03-15T03:53:09.466Z,6.11
2018-03-15T03:54:46.174Z,6.12
2018-03-15T03:56:24.144Z,6.13
2018-03-15T03:58:00.758Z,6.14
2018-03-15T03:59:37.682Z,6.17
2018-03-15T04:01:14.530Z,6.15
2018-03-15T04:02:51.374Z,6.16
2018-03-15T04:04:28.185Z,6.14
2018-03-15T04:06:04.891Z,6.12
2018-03-15T04:07:41.470Z,6.12
2018-03-15T04:09:18.109Z,6.11
2018-03-15T04:10:56.189Z,6.11
2018-03-15T04:12:33.578Z,6.10
2018-03-15T04:14:10.121Z,6.11
2018-03-15T04:15:47.354Z,6.11
2018-03-15T04:17:24.405Z,6.13
2018-03-15T04:19:02.071Z,6.11
2018-03-15T04:21:05.350Z,6.12
2018-03-15T04:22:41.946Z,6.13
2018-03-15T04:24:19.624Z,6.11
2018-03-15T04:25:56.359Z,6.10
2018-03-15T04:27:33.328Z,6.11
2018-03-15T04:29:10.082Z,6.13
2018-03-15T04:30:46.739Z,6.15
2018-03-15T04:32:23.981Z,6.14
2018-03-15T04:34:01.350Z,6.12
2018-03-15T04:35:38.320Z,6.11
2018-03-15T04:37:15.298Z,6.11
2018-03-15T04:38:52.191Z,6.09
2018-03-15T04:40:29.336Z,6.10
2018-03-15T04:42:06.308Z,6.12
2018-03-15T04:43:43.494Z,6.11
2018-03-15T04:45:20.398Z,6.12
2018-03-15T04:46:57.576Z,6.13
2018-03-15T04:48:34.133Z,6.12
2018-03-15T04:50:10.758Z,6.10
2018-03-15T04:51:48.262Z,6.07
2018-03-15T04:53:25.604Z,6.10
2018-03-15T04:55:03.338Z,6.10
2018-03-15T04:56:40.023Z,6.16
2018-03-15T04:58:16.660Z,6.14
2018-03-15T04:59:53.292Z,6.20
2018-03-15T05:01:30.607Z,6.22
2018-03-15T05:03:09.213Z,6.21
2018-03-15T05:04:46.083Z,6.18
2018-03-15T05:06:23.684Z,6.16
2018-03-15T05:08:00.672Z,6.19
2018-03-15T05:09:38.224Z,6.18
2018-03-15T05:11:15.273Z,6.15
2018-03-15T05:12:52.181Z,6.13
2018-03-15T05:14:29.663Z,6.13
2018-03-15T05:16:06.774Z,6.13
2018-03-15T05:17:44.406Z,6.14
2018-03-15T05:19:21.829Z,6.16
2018-03-15T05:20:59.298Z,6.17
2018-03-15T05:22:36.797Z,6.20
2018-03-15T05:24:13.808Z,6.18
2018-03-15T05:25:50.741Z,6.14
2018-03-15T05:27:28.073Z,6.16
2018-03-15T05:29:06.160Z,6.17
2018-03-15T05:30:45.238Z,6.18
2018-03-15T05:32:23.859Z,6.20
2018-03-15T05:34:01.753Z,6.21
2018-03-15T05:35:39.212Z,6.20
2018-03-15T05:37:16.504Z,6.19
2018-03-15T05:38:54.138Z,6.21
2018-03-15T05:40:32.806Z,6.22
2018-03-15T05:42:10.572Z,6.22
2018-03-15T05:43:48.774Z,6.21
2018-03-15T05:45:28.082Z,6.21
2018-03-15T05:47:06.135Z,6.21
2018-03-15T05:48:43.796Z,6.21
2018-03-15T05:50:21.212Z,6.23
2018-03-15T05:51:59.558Z,6.23
2018-03-15T05:53:37.406Z,6.22
2018-03-15T05:55:15.207Z,6.24
2018-03-15T05:56:52.773Z,6.21
2018-03-15T05:58:30.800Z,6.23
2018-03-15T06:00:09.074Z,6.31
2018-03-15T06:01:46.976Z,6.37
2018-03-15T06:03:24.931Z,6.42
2018-03-15T06:05:03.019Z,6.50
2018-03-15T06:06:41.088Z,6.48
2018-03-15T06:08:18.959Z,6.56
2018-03-15T06:09:56.803Z,6.68
2018-03-15T06:11:34.885Z,6.77
2018-03-15T06:13:28.153Z,6.88
2018-03-15T06:15:07.206Z,7.01
2018-03-15T06:16:45.439Z,7.03
2018-03-15T06:18:24.197Z,7.13
2018-03-15T06:20:02.017Z,7.23
2018-03-15T06:21:39.684Z,7.38
2018-03-15T06:23:17.197Z,7.46
2018-03-15T06:24:54.970Z,7.43
2018-03-15T06:26:32.639Z,7.47
2018-03-15T06:28:10.486Z,7.26
2018-03-15T06:29:47.915Z,7.15
2018-03-15T06:31:27.329Z,7.12
2018-03-15T06:33:04.832Z,7.18
2018-03-15T06:34:42.752Z,7.18
2018-03-15T06:36:20.771Z,7.21
2018-03-15T06:37:59.041Z,7.29
2018-03-15T06:39:37.163Z,7.29
2018-03-15T06:41:14.852Z,7.32
2018-03-15T06:42:52.514Z,7.51
2018-03-15T06:44:31.002Z,7.47
2018-03-15T06:46:09.703Z,7.57
2018-03-15T06:47:47.253Z,7.76
2018-03-15T06:49:25.812Z,7.75
2018-03-15T06:51:04.103Z,7.59
2018-03-15T06:52:41.583Z,7.49
2018-03-15T06:54:20.253Z,7.57
2018-03-15T06:55:58.008Z,7.64
2018-03-15T06:57:36.152Z,7.75
2018-03-15T06:59:14.436Z,7.80
2018-03-15T07:00:53.586Z,7.93
2018-03-15T07:02:31.293Z,8.08
2018-03-15T07:04:09.390Z,8.26
2018-03-15T07:05:47.375Z,8.38
2018-03-15T07:07:25.068Z,8.57
2018-03-15T07:09:02.836Z,8.62
2018-03-15T07:10:41.593Z,8.28
2018-03-15T07:12:18.819Z,8.31
2018-03-15T07:13:56.407Z,8.34
2018-03-15T07:15:34.509Z,8.35
2018-03-15T07:17:13.432Z,8.16
2018-03-15T07:18:51.254Z,8.16
2018-03-15T07:20:28.830Z,8.17
2018-03-15T07:22:07.279Z,7.97
2018-03-15T07:23:45.077Z,7.68
2018-03-15T07:25:23.501Z,7.66
2018-03-15T07:27:01.178Z,7.80
2018-03-15T07:28:38.812Z,7.90
2018-03-15T07:30:20.730Z,7.95
2018-03-15T07:33:37.502Z,8.16
2018-03-15T07:35:16.402Z,8.29
2018-03-15T07:36:54.595Z,8.53
2018-03-15T07:38:32.073Z,8.54
2018-03-15T07:40:09.543Z,8.58
2018-03-15T07:41:48.422Z,8.57
2018-03-15T07:43:26.327Z,8.51
2018-03-15T07:45:03.901Z,8.54
2018-03-15T07:46:42.568Z,8.65
2018-03-15T07:48:21.245Z,8.61
2018-03-15T07:49:59.710Z,8.84
2018-03-15T07:51:37.387Z,9.02
2018-03-15T07:53:15.386Z,9.06
2018-03-15T07:54:53.354Z,9.10
2018-03-15T07:56:30.810Z,9.01
2018-03-15T07:58:08.528Z,8.87
2018-03-15T07:59:46.615Z,8.91
2018-03-15T08:01:25.305Z,8.96
2018-03-15T08:03:03.778Z,8.95
2018-03-15T08:04:41.282Z,8.91
2018-03-15T08:06:18.946Z,8.82
2018-03-15T08:07:56.846Z,8.92
2018-03-15T08:09:35.545Z,8.99
2018-03-15T08:11:13.185Z,8.90
2018-03-15T08:12:50.843Z,9.01
2018-03-15T08:14:28.634Z,9.09
2018-03-15T08:16:07.590Z,9.22
2018-03-15T08:17:45.843Z,9.16
2018-03-15T08:19:24.233Z,9.09
2018-03-15T08:21:02.187Z,8.99
2018-03-15T08:22:39.495Z,8.99
2018-03-15T08:24:17.050Z,9.01
2018-03-15T08:25:54.401Z,9.01
2018-03-15T08:27:32.254Z,9.01
2018-03-15T08:29:09.667Z,9.18
2018-03-15T08:30:47.461Z,9.27
2018-03-15T08:32:26.423Z,9.30
2018-03-15T08:34:04.309Z,9.29
2018-03-15T08:35:41.855Z,9.38
2018-03-15T08:37:20.250Z,9.30
2018-03-15T08:38:57.652Z,9.32
2018-03-15T08:40:35.051Z,9.44
2018-03-15T08:42:12.441Z,9.51
2018-03-15T08:43:50.875Z,9.61
2018-03-15T08:45:29.917Z,9.49
2018-03-15T08:47:08.164Z,9.59
2018-03-15T08:48:45.373Z,9.56
2018-03-15T08:50:23.042Z,9.50
2018-03-15T08:52:00.982Z,9.51
2018-03-15T08:53:38.971Z,9.65
2018-03-15T08:55:17.397Z,9.71
2018-03-15T08:56:54.820Z,9.87
2018-03-15T08:58:33.053Z,9.89
2018-03-15T09:00:10.761Z,9.92
2018-03-15T09:01:48.540Z,9.94
2018-03-15T09:03:26.948Z,10.07
2018-03-15T09:05:04.624Z,9.87
2018-03-15T09:06:42.355Z,9.87
2018-03-15T09:08:21.184Z,10.01
2018-03-15T09:09:58.855Z,10.17
2018-03-15T09:11:35.944Z,10.06
2018-03-15T09:13:13.172Z,10.04
2018-03-15T09:14:50.496Z,10.02
2018-03-15T09:16:28.701Z,10.17
2018-03-15T09:18:05.978Z,10.34
2018-03-15T09:19:43.603Z,10.44
2018-03-15T09:21:21.683Z,10.34
2018-03-15T09:22:59.800Z,10.29
2018-03-15T09:24:37.400Z,10.39
2018-03-15T09:26:15.285Z,10.40
2018-03-15T09:27:52.685Z,10.35
2018-03-15T09:29:30.103Z,10.32
2018-03-15T09:31:08.059Z,10.26
2018-03-15T09:32:45.601Z,10.31
2018-03-15T09:34:25.655Z,10.32
2018-03-15T09:36:03.001Z,10.35
2018-03-15T09:37:40.466Z,10.59
2018-03-15T09:39:18.055Z,10.80
2018-03-15T09:40:55.995Z,10.62
2018-03-15T09:42:33.316Z,10.64
2018-03-15T09:44:10.467Z,10.57
2018-03-15T09:45:48.054Z,10.59
2018-03-15T09:47:25.278Z,10.76
2018-03-15T09:49:02.821Z,11.01
2018-03-15T09:50:40.569Z,11.08
2018-03-15T09:52:18.747Z,11.08
2018-03-15T09:53:56.041Z,11.16
2018-03-15T09:55:34.131Z,11.28
2018-03-15T09:57:11.920Z,11.37
2018-03-15T09:58:49.443Z,11.53
2018-03-15T10:00:29.706Z,11.52
2018-03-15T10:02:07.818Z,11.35
2018-03-15T10:03:45.652Z,11.25
2018-03-15T10:05:22.924Z,11.28
2018-03-15T10:07:01.112Z,11.38
2018-03-15T10:08:39.795Z,11.41
2018-03-15T10:10:17.803Z,11.41
2018-03-15T10:11:55.225Z,11.48
2018-03-15T10:13:33.332Z,11.57
2018-03-15T10:15:16.631Z,11.73
2018-03-15T10:16:54.690Z,11.70
2018-03-15T10:18:32.590Z,11.80
2018-03-15T10:20:09.747Z,11.76
2018-03-15T10:21:48.644Z,11.80
2018-03-15T10:23:26.284Z,11.72
2018-03-15T10:25:13.608Z,11.84
2018-03-15T10:26:41.154Z,11.89
2018-03-15T10:28:18.879Z,11.85
2018-03-15T10:30:00.874Z,11.87
2018-03-15T10:31:38.313Z,11.93
2018-03-15T10:33:20.108Z,12.09
2018-03-15T10:35:01.490Z,12.18
2018-03-15T10:36:38.880Z,12.22
2018-03-15T10:38:16.129Z,12.30
2018-03-15T10:39:53.189Z,12.37
2018-03-15T10:41:30.708Z,12.51
2018-03-15T10:43:08.130Z,12.47
2018-03-15T10:44:45.268Z,12.27
2018-03-15T10:46:22.700Z,12.23
2018-03-15T10:48:00.466Z,12.33
2018-03-15T10:49:37.419Z,12.49
2018-03-15T10:51:14.570Z,12.55
2018-03-15T10:52:51.693Z,12.68
2018-03-15T10:54:30.479Z,12.84
2018-03-15T10:56:07.610Z,13.09
2018-03-15T10:57:45.114Z,13.10
2018-03-15T10:59:22.241Z,13.09
2018-03-15T11:01:04.095Z,13.24
2018-03-15T11:02:45.346Z,13.38
2018-03-15T11:04:26.391Z,13.43
2018-03-15T11:06:07.310Z,13.39
2018-03-15T11:07:48.656Z,13.41
2018-03-15T11:09:29.831Z,13.24
2018-03-15T11:11:07.199Z,13.05
2018-03-15T11:12:44.533Z,12.96
2018-03-15T11:14:21.655Z,12.92
2018-03-15T11:15:59.659Z,12.94
2018-03-15T11:17:36.938Z,13.06
2018-03-15T11:19:14.635Z,13.04
2018-03-15T11:20:51.802Z,13.16
2018-03-15T11:22:29.902Z,13.16
2018-03-15T11:24:06.870Z,13.01
2018-03-15T11:25:44.465Z,13.03
2018-03-15T11:27:21.657Z,13.11
2018-03-15T11:28:59.044Z,13.34
2018-03-15T11:30:36.731Z,13.37
2018-03-15T11:32:14.351Z,13.29
2018-03-15T11:33:51.423Z,13.24
2018-03-15T11:35:29.313Z,13.10
2018-03-15T11:37:06.679Z,13.12
2018-03-15T11:38:43.721Z,13.09
2018-03-15T11:40:21.618Z,13.10
2018-03-15T11:41:59.898Z,13.21
2018-03-15T11:43:37.326Z,13.30
2018-03-15T11:45:21.535Z,13.22
2018-03-15T11:47:00.316Z,13.30
2018-03-15T11:48:38.626Z,13.46
2018-03-15T11:50:16.699Z,13.60
2018-03-15T11:51:54.234Z,13.69
2018-03-15T11:53:32.356Z,13.67
2018-03-15T11:55:09.395Z,13.65
2018-03-15T11:56:47.747Z,13.62
2018-03-15T11:58:25.011Z,13.66
2018-03-15T12:00:04.430Z,13.51
2018-03-15T12:01:42.241Z,13.24
2018-03-15T12:03:19.262Z,13.16
2018-03-15T12:04:56.398Z,13.05
2018-03-15T12:06:34.999Z,13.16
2018-03-15T12:08:12.771Z,13.29
2018-03-15T12:09:49.854Z,13.33
2018-03-15T12:11:26.942Z,13.49
2018-03-15T12:13:03.991Z,13.44
2018-03-15T12:14:41.883Z,13.63
2018-03-15T12:16:19.302Z,13.66
2018-03-15T12:17:56.337Z,13.46
2018-03-15T12:19:33.413Z,13.37
2018-03-15T12:21:10.563Z,13.27
2018-03-15T12:22:47.543Z,13.12
2018-03-15T12:24:24.533Z,13.19
2018-03-15T12:26:01.923Z,13.42
2018-03-15T12:27:39.078Z,13.48
2018-03-15T12:29:16.329Z,13.53
2018-03-15T12:30:53.606Z,13.42
2018-03-15T12:32:31.096Z,13.33
2018-03-15T12:34:07.764Z,13.33
2018-03-15T12:35:44.994Z,13.41
2018-03-15T12:37:22.315Z,13.43
2018-03-15T12:38:59.681Z,13.48
2018-03-15T12:40:38.681Z,13.47
2018-03-15T12:42:15.956Z,13.49
2018-03-15T12:43:53.450Z,13.48
2018-03-15T12:45:30.771Z,13.51
2018-03-15T12:47:07.756Z,13.49
2018-03-15T12:48:44.941Z,13.42
2018-03-15T12:50:23.334Z,13.55
2018-03-15T12:52:01.163Z,13.65
2018-03-15T12:53:38.858Z,13.69
2018-03-15T12:55:16.002Z,13.59
2018-03-15T12:56:53.567Z,13.57
2018-03-15T12:58:30.618Z,13.44
2018-03-15T13:00:08.149Z,13.39
2018-03-15T13:01:45.298Z,13.51
2018-03-15T13:03:22.504Z,13.61
2018-03-15T13:04:59.583Z,13.70
2018-03-15T13:06:36.502Z,13.75
2018-03-15T13:08:13.857Z,13.57
2018-03-15T13:09:50.842Z,13.63
2018-03-15T13:11:27.727Z,13.60
2018-03-15T13:13:05.436Z,13.60
2018-03-15T13:14:43.089Z,13.67
2018-03-15T13:16:20.314Z,13.77
2018-03-15T13:17:58.286Z,13.78
2018-03-15T13:19:35.988Z,13.70
2018-03-15T13:21:13.546Z,13.69
2018-03-15T13:22:51.669Z,13.68
2018-03-15T13:24:28.706Z,13.68
2018-03-15T13:26:05.750Z,13.57
2018-03-15T13:27:45.248Z,13.59
2018-03-15T13:29:25.024Z,13.56
2018-03-15T13:31:02.620Z,13.59
2018-03-15T13:32:41.485Z,13.54
2018-03-15T13:34:18.909Z,13.49
2018-03-15T13:35:55.818Z,13.56
2018-03-15T13:37:32.981Z,13.66
2018-03-15T13:39:10.291Z,13.67
2018-03-15T13:40:48.787Z,13.78
2018-03-15T13:42:26.188Z,13.71
2018-03-15T13:44:03.219Z,13.69
2018-03-15T13:45:40.800Z,13.65
2018-03-15T13:47:18.102Z,13.63
2018-03-15T13:48:55.229Z,13.78
2018-03-15T13:50:33.331Z,13.86
2018-03-15T13:52:10.702Z,13.86
2018-03-15T13:53:49.443Z,13.88
2018-03-15T13:55:27.359Z,13.83
2018-03-15T13:57:04.814Z,13.79
2018-03-15T13:58:42.810Z,13.70
2018-03-15T14:00:21.179Z,13.71
2018-03-15T14:01:58.757Z,13.71
2018-03-15T14:03:35.918Z,13.76
2018-03-15T14:05:13.094Z,13.70
2018-03-15T14:06:50.617Z,13.56
2018-03-15T14:08:28.763Z,13.52
2018-03-15T14:10:06.325Z,13.58
2018-03-15T14:11:43.607Z,13.64
2018-03-15T14:13:21.175Z,13.70
2018-03-15T14:14:59.032Z,13.77
2018-03-15T14:16:37.996Z,13.81
2018-03-15T14:18:15.466Z,13.87
2018-03-15T14:19:52.663Z,13.90
2018-03-15T14:21:30.566Z,14.05
2018-03-15T14:23:08.524Z,13.99
2018-03-15T14:24:47.047Z,13.83
2018-03-15T14:26:24.253Z,13.75
2018-03-15T14:28:03.179Z,13.72
2018-03-15T14:29:41.036Z,13.73
2018-03-15T14:31:19.393Z,13.80
2018-03-15T14:32:57.444Z,13.78
2018-03-15T14:34:34.804Z,13.81
2018-03-15T14:36:12.254Z,13.81
2018-03-15T14:37:50.079Z,13.77
2018-03-15T14:39:28.014Z,13.82
2018-03-15T14:41:05.332Z,13.76
2018-03-15T14:42:44.950Z,13.61
2018-03-15T14:44:22.622Z,13.58
2018-03-15T14:45:59.702Z,13.56
2018-03-15T14:47:37.219Z,13.62
2018-03-15T14:49:14.297Z,13.76
2018-03-15T14:50:52.082Z,13.81
2018-03-15T14:52:30.217Z,13.79
2018-03-15T14:54:07.340Z,13.78
2018-03-15T14:55:44.601Z,13.78
2018-03-15T14:57:22.890Z,13.69
2018-03-15T14:59:00.039Z,13.70
2018-03-15T15:00:39.141Z,13.67
2018-03-15T15:02:17.766Z,13.78
2018-03-15T15:03:55.725Z,13.89
2018-03-15T15:05:34.691Z,13.96
2018-03-15T15:07:11.791Z,14.02
2018-03-15T15:08:48.811Z,14.09
2018-03-15T15:10:27.783Z,14.18
2018-03-15T15:12:05.802Z,14.19
2018-03-15T15:13:42.938Z,14.13
2018-03-15T15:15:21.126Z,14.20
2018-03-15T15:17:00.597Z,14.27
2018-03-15T15:18:38.141Z,14.09
2018-03-15T15:20:16.084Z,13.85
2018-03-15T15:21:56.309Z,13.75
2018-03-15T15:23:35.945Z,13.70
2018-03-15T15:25:12.945Z,13.80
2018-03-15T15:26:50.374Z,13.90
2018-03-15T15:28:29.785Z,14.10
2018-03-15T15:30:08.856Z,14.16
2018-03-15T15:31:46.674Z,14.13
2018-03-15T15:33:25.769Z,14.04
2018-03-15T15:35:04.280Z,13.92
2018-03-15T15:36:42.128Z,13.96
2018-03-15T15:38:19.453Z,13.94
2018-03-15T15:39:56.777Z,13.86
2018-03-15T15:41:33.778Z,13.77
2018-03-15T15:43:12.625Z,13.77
2018-03-15T15:47:08.493Z,13.74
2018-03-15T15:48:50.618Z,13.52
2018-03-15T15:50:28.664Z,13.46
2018-03-15T15:52:09.628Z,13.53
2018-03-15T15:53:50.066Z,13.58
2018-03-15T15:55:37.908Z,13.60
2018-03-15T15:57:29.556Z,13.63
2018-03-15T15:59:15.178Z,13.52
2018-03-15T16:00:54.424Z,13.40
2018-03-15T16:02:32.600Z,13.36
2018-03-15T16:04:10.592Z,13.41
2018-03-15T16:05:48.888Z,13.37
2018-03-15T16:07:25.961Z,13.34
2018-03-15T16:09:04.110Z,13.40
2018-03-15T16:10:44.659Z,13.46
2018-03-15T16:12:23.233Z,13.43
2018-03-15T16:14:00.664Z,13.47
2018-03-15T16:15:40.173Z,13.56
2018-03-15T16:17:17.907Z,13.58
2018-03-15T16:18:55.511Z,13.59
2018-03-15T16:20:33.389Z,13.57
2018-03-15T16:22:10.635Z,13.53
2018-03-15T16:23:48.779Z,13.51
2018-03-15T16:25:26.196Z,13.46
2018-03-15T16:27:03.379Z,13.43
2018-03-15T16:28:42.944Z,13.52
2018-03-15T16:30:22.265Z,13.49
2018-03-15T16:32:02.965Z,13.50
2018-03-15T16:33:40.802Z,13.60
2018-03-15T16:35:17.776Z,13.69
2018-03-15T16:36:56.889Z,13.76
2018-03-15T16:38:36.156Z,13.77
2018-03-15T16:40:20.384Z,13.81
2018-03-15T16:41:57.328Z,13.87
2018-03-15T16:43:35.199Z,13.86
2018-03-15T16:45:16.891Z,13.91
2018-03-15T16:46:55.252Z,13.85
2018-03-15T16:48:32.425Z,13.83
2018-03-15T16:50:10.012Z,13.83
2018-03-15T16:51:48.786Z,13.74
2018-03-15T16:53:25.849Z,13.75
2018-03-15T16:55:03.145Z,13.70
2018-03-15T16:56:41.242Z,13.59
2018-03-15T16:58:18.568Z,13.51
2018-03-15T16:59:55.718Z,13.55
2018-03-15T17:01:34.587Z,13.55
2018-03-15T17:03:15.958Z,13.64
2018-03-15T17:04:53.182Z,13.63
2018-03-15T17:06:31.683Z,13.68
2018-03-15T17:08:09.266Z,13.72
2018-03-15T17:09:47.485Z,13.75
2018-03-15T17:11:28.635Z,13.75
2018-03-15T17:13:06.130Z,13.72
2018-03-15T17:14:44.218Z,13.63
2018-03-15T17:16:23.171Z,13.66
2018-03-15T17:18:00.064Z,13.63
2018-03-15T17:19:37.204Z,13.55
2018-03-15T17:21:14.201Z,13.45
2018-03-15T17:22:53.448Z,13.52
2018-03-15T17:24:34.408Z,13.63
2018-03-15T17:26:12.128Z,13.72
2018-03-15T17:27:50.693Z,13.69
2018-03-15T17:29:27.738Z,13.51
2018-03-15T17:31:06.158Z,13.40
2018-03-15T17:32:43.085Z,13.47
2018-03-15T17:34:20.966Z,13.46
2018-03-15T17:36:00.266Z,13.43
2018-03-15T17:37:37.321Z,13.54
2018-03-15T17:39:17.264Z,13.55
2018-03-15T17:40:55.796Z,13.54
2018-03-15T17:42:36.192Z,13.39
2018-03-15T17:44:18.718Z,13.27
2018-03-15T17:45:57.039Z,13.34
2018-03-15T17:47:34.400Z,13.39
2018-03-15T17:49:11.353Z,13.29
2018-03-15T17:50:49.135Z,13.12
2018-03-15T17:52:26.272Z,13.11
2018-03-15T17:54:04.188Z,12.97
2018-03-15T17:55:41.219Z,12.95
2018-03-15T17:57:19.257Z,12.88
2018-03-15T17:58:56.945Z,12.86
2018-03-15T18:00:35.530Z,12.79
2018-03-15T18:02:15.493Z,12.80
2018-03-15T18:03:53.121Z,12.84
2018-03-15T18:05:33.699Z,12.74
2018-03-15T18:07:11.807Z,12.75
2018-03-15T18:08:49.741Z,12.78
2018-03-15T18:10:26.585Z,12.79
2018-03-15T18:12:06.290Z,12.85
2018-03-15T18:13:45.604Z,12.88
2018-03-15T18:15:25.785Z,12.86
2018-03-15T18:17:03.911Z,12.90
2018-03-15T18:18:41.350Z,12.89
2018-03-15T18:20:18.569Z,12.91
2018-03-15T18:21:55.943Z,12.81
2018-03-15T18:23:33.873Z,12.78
2018-03-15T18:25:13.437Z,12.76
2018-03-15T18:26:51.687Z,12.66
2018-03-15T18:28:30.004Z,12.63
2018-03-15T18:30:09.704Z,12.64
2018-03-15T18:31:47.082Z,12.73
2018-03-15T18:33:24.990Z,12.85
2018-03-15T18:35:02.343Z,12.54
2018-03-15T18:36:40.356Z,12.79
2018-03-15T18:38:17.342Z,13.04
2018-03-15T18:39:55.336Z,12.42
2018-03-15T18:41:32.655Z,12.13
2018-03-15T18:43:11.810Z,12.35
2018-03-15T18:44:49.459Z,12.63
2018-03-15T18:46:28.365Z,12.95
2018-03-15T18:48:07.482Z,13.08
2018-03-15T18:49:46.097Z,13.19
2018-03-15T18:51:23.423Z,13.44
2018-03-15T18:53:02.322Z,13.63
2018-03-15T18:54:42.965Z,13.56
2018-03-15T18:56:21.590Z,13.57
2018-03-15T18:57:58.837Z,13.56
2018-03-15T18:59:36.820Z,13.56
2018-03-15T19:01:14.445Z,13.51
2018-03-15T19:02:51.392Z,13.49
2018-03-15T19:04:28.279Z,13.54
2018-03-15T19:06:08.155Z,13.53
2018-03-15T19:09:31.118Z,13.58
2018-03-15T19:11:08.443Z,13.49
2018-03-15T19:12:46.383Z,13.50
2018-03-15T19:14:23.407Z,13.46
2018-03-15T19:16:01.516Z,13.39
2018-03-15T19:17:39.838Z,12.92
2018-03-15T19:19:19.871Z,13.00
2018-03-15T19:20:59.155Z,12.83
2018-03-15T19:22:37.873Z,12.75
2018-03-15T19:25:50.691Z,12.83
2018-03-15T19:27:27.736Z,12.56
2018-03-15T19:29:04.792Z,11.68
2018-03-15T19:30:42.144Z,11.02
2018-03-15T19:32:20.111Z,10.66
2018-03-15T19:33:57.248Z,10.42
2018-03-15T19:35:34.312Z,10.14
2018-03-15T19:37:12.059Z,9.84
2018-03-15T19:38:50.422Z,9.58
2018-03-15T19:40:28.258Z,9.48
2018-03-15T19:42:05.549Z,9.42
2018-03-15T19:43:42.653Z,9.43
2018-03-15T19:45:21.111Z,9.39
2018-03-15T19:46:58.243Z,9.42
2018-03-15T19:48:35.202Z,9.36
2018-03-15T19:50:13.903Z,9.35
2018-03-15T19:51:52.427Z,9.38
2018-03-15T19:53:29.888Z,9.39
2018-03-15T19:55:07.555Z,9.44
2018-03-15T19:56:46.136Z,9.49
2018-03-15T19:58:24.602Z,9.48
2018-03-15T20:00:02.652Z,9.46
2018-03-15T20:01:40.169Z,9.48
2018-03-15T20:03:18.508Z,9.53
2018-03-15T20:04:55.902Z,9.54
2018-03-15T20:06:33.318Z,9.53
2018-03-15T20:08:11.424Z,9.61
2018-03-15T20:09:49.948Z,9.46
2018-03-15T20:11:28.008Z,9.44
2018-03-15T20:13:07.451Z,9.35
2018-03-15T20:14:45.638Z,9.53
2018-03-15T20:16:23.964Z,9.40
2018-03-15T20:18:02.272Z,9.43
2018-03-15T20:19:39.172Z,9.46
2018-03-15T20:21:17.490Z,9.36
2018-03-15T20:22:58.635Z,9.41
2018-03-15T20:24:38.310Z,9.31
2018-03-15T20:26:16.142Z,9.29
2018-03-15T20:27:57.153Z,9.19
2018-03-15T20:29:34.130Z,9.17
2018-03-15T20:31:11.413Z,9.18
2018-03-15T20:32:52.519Z,9.16
2018-03-15T20:34:30.316Z,9.15
2018-03-15T20:36:07.625Z,9.14
2018-03-15T20:37:45.101Z,9.14
2018-03-15T20:39:26.809Z,9.15
2018-03-15T20:41:34.916Z,9.27
2018-03-15T20:43:12.310Z,9.20
2018-03-15T20:44:49.377Z,9.20
2018-03-15T20:46:31.295Z,9.45
2018-03-15T20:49:14.910Z,9.33
2018-03-15T20:50:52.020Z,9.24
2018-03-15T20:52:28.966Z,9.11
2018-03-15T20:54:07.146Z,9.04
2018-03-15T20:55:45.895Z,9.16
2018-03-15T20:57:23.581Z,9.13
2018-03-15T20:59:01.387Z,9.19
2018-03-15T21:00:38.600Z,9.34
2018-03-15T21:02:15.593Z,9.33
2018-03-15T21:03:52.433Z,9.32
2018-03-15T21:05:31.831Z,9.32
2018-03-15T21:07:08.768Z,9.49
2018-03-15T21:08:46.623Z,9.42
2018-03-15T21:10:23.575Z,9.36
2018-03-15T21:12:00.971Z,9.32
2018-03-15T21:13:38.764Z,9.28
2018-03-15T21:15:18.364Z,9.21
2018-03-15T21:16:55.674Z,9.16
2018-03-15T21:18:35.596Z,9.15
2018-03-15T21:20:13.562Z,9.15
2018-03-15T21:21:50.561Z,9.10
2018-03-15T21:23:27.548Z,9.07
2018-03-15T21:25:05.384Z,9.01
2018-03-15T21:26:42.419Z,9.03
2018-03-15T21:28:20.870Z,9.07
2018-03-15T21:29:58.032Z,9.02
2018-03-15T21:31:36.921Z,8.98
2018-03-15T21:33:14.031Z,9.04
2018-03-15T21:34:51.088Z,9.02